Wolverine, Michigan
Current Conditions -  °F | °C
As of 5:39 PM on Monday 24 Nov 2014 (Local Time) from KGLR Reporting Station
Light Rain Light Rain  
Wind Chill: 31°   Ceiling: 1900
Heat Index: 36°   Visibility: 8mi
Dew Point: 35°   Wind: 6mph
Humidity: 97%   Direction: 280°W
Pressure: 29.15"   Gusts: NA
Location:  45.27°N, 84.6°W
Report Text: KGLR 242239Z AUTO 28005KT 8SM -RA SCT005 OVC019 02/02 A2915 RMK AO2 P0002 T00220017
Loading
Personal Weather Stations






























Interactive Weather Map New forecast layout! Learn more

10-Day Weather Forecast

Advertisements
Track Severe Weather on mobile